createdAt,value
2022-09-25T00:01:43.781Z,11.90
2022-09-25T00:04:10.531Z,13.35
2022-09-25T00:06:37.208Z,11.77
2022-09-25T00:09:06.840Z,12.52
2022-09-25T00:11:38.702Z,13.00
2022-09-25T00:14:05.449Z,11.10
2022-09-25T00:16:33.121Z,14.82
2022-09-25T00:19:21.561Z,13.50
2022-09-25T00:21:53.654Z,13.27
2022-09-25T00:24:20.597Z,11.73
2022-09-25T00:26:47.276Z,12.32
2022-09-25T00:29:17.607Z,11.63
2022-09-25T00:31:44.323Z,11.88
2022-09-25T00:34:11.089Z,11.68
2022-09-25T00:36:37.845Z,11.05
2022-09-25T00:39:05.850Z,13.75
2022-09-25T00:41:32.655Z,12.52
2022-09-25T00:44:00.839Z,12.90
2022-09-25T00:46:40.457Z,11.10
2022-09-25T00:49:17.278Z,11.98
2022-09-25T00:52:06.693Z,10.88
2022-09-25T00:54:36.422Z,11.45
2022-09-25T00:57:07.089Z,14.98
2022-09-25T00:59:36.943Z,11.60
2022-09-25T01:02:03.725Z,11.07
2022-09-25T01:04:33.076Z,9.60
2022-09-25T01:06:59.809Z,9.68
2022-09-25T01:09:27.262Z,10.50
2022-09-25T01:11:54.732Z,11.32
2022-09-25T01:14:21.579Z,12.23
2022-09-25T01:16:57.772Z,11.18
2022-09-25T01:20:12.020Z,12.55
2022-09-25T01:23:08.034Z,11.73
2022-09-25T01:25:56.462Z,11.90
2022-09-25T01:28:26.053Z,10.13
2022-09-25T01:30:59.179Z,11.82
2022-09-25T01:33:35.710Z,11.50
2022-09-25T01:36:34.256Z,14.18
2022-09-25T01:39:10.827Z,12.18
2022-09-25T01:41:46.335Z,11.90
2022-09-25T01:44:14.821Z,11.13
2022-09-25T01:46:45.878Z,11.43
2022-09-25T01:49:18.755Z,11.52
2022-09-25T01:51:48.479Z,12.02
2022-09-25T01:54:19.265Z,10.57
2022-09-25T01:56:55.495Z,12.73
2022-09-25T01:59:29.818Z,10.77
2022-09-25T02:01:59.605Z,10.45
2022-09-25T02:04:31.356Z,9.95
2022-09-25T02:07:01.432Z,10.35
2022-09-25T02:10:00.822Z,12.60
2022-09-25T02:12:35.132Z,11.63
2022-09-25T02:15:15.535Z,11.30
2022-09-25T02:18:06.825Z,12.10
2022-09-25T02:20:34.910Z,10.00
2022-09-25T02:23:09.039Z,10.80
2022-09-25T02:25:43.493Z,11.05
2022-09-25T02:28:10.194Z,10.45
2022-09-25T02:30:36.984Z,10.15
2022-09-25T02:33:03.885Z,10.63
2022-09-25T02:35:31.307Z,9.90
2022-09-25T02:37:58.076Z,10.43
2022-09-25T02:40:32.633Z,11.18
2022-09-25T02:43:13.419Z,10.63
2022-09-25T02:45:51.221Z,9.30
2022-09-25T02:48:32.751Z,10.38
2022-09-25T02:51:41.081Z,11.32
2022-09-25T02:54:14.326Z,11.73
2022-09-25T02:56:53.231Z,12.30
2022-09-25T02:59:27.987Z,14.38
2022-09-25T03:01:55.285Z,11.05
2022-09-25T03:04:22.080Z,12.07
2022-09-25T03:06:48.989Z,11.00
2022-09-25T03:09:17.682Z,11.70
2022-09-25T03:11:44.862Z,10.52
2022-09-25T03:14:11.562Z,9.60
2022-09-25T03:16:47.913Z,12.20
2022-09-25T03:19:16.090Z,12.75
2022-09-25T03:21:42.857Z,12.20
2022-09-25T03:24:09.670Z,11.40
2022-09-25T03:26:36.486Z,11.65
2022-09-25T03:29:03.868Z,11.38
2022-09-25T03:31:30.813Z,10.93
2022-09-25T03:33:57.956Z,12.82
2022-09-25T03:36:29.322Z,11.73
2022-09-25T03:39:00.289Z,11.82
2022-09-25T03:41:31.836Z,10.55
2022-09-25T03:43:59.065Z,11.10
2022-09-25T03:46:31.144Z,10.50
2022-09-25T03:48:58.287Z,10.45
2022-09-25T03:51:27.085Z,11.15
2022-09-25T03:53:54.243Z,13.80
2022-09-25T03:56:23.502Z,12.68
2022-09-25T03:58:51.827Z,14.10
2022-09-25T04:01:21.918Z,12.48
2022-09-25T04:03:49.431Z,14.75
2022-09-25T04:06:18.418Z,12.98
2022-09-25T04:08:46.529Z,11.60
2022-09-25T04:11:14.269Z,13.35
2022-09-25T04:13:44.102Z,13.18
2022-09-25T04:16:11.966Z,11.52
2022-09-25T04:18:38.736Z,12.50
2022-09-25T04:21:08.322Z,13.00
2022-09-25T04:23:36.263Z,13.20
2022-09-25T04:26:02.949Z,12.52
2022-09-25T04:28:32.194Z,14.38
2022-09-25T04:30:58.879Z,11.70
2022-09-25T04:33:44.185Z,12.38
2022-09-25T04:36:15.487Z,14.45
2022-09-25T04:38:42.460Z,12.55
2022-09-25T04:41:09.187Z,12.20
2022-09-25T04:43:36.045Z,13.05
2022-09-25T04:46:08.357Z,12.88
2022-09-25T04:48:35.932Z,12.73
2022-09-25T04:51:04.426Z,13.95
2022-09-25T04:53:32.341Z,13.50
2022-09-25T04:56:03.238Z,13.05
2022-09-25T04:58:29.896Z,11.10
2022-09-25T05:01:01.777Z,12.13
2022-09-25T05:03:30.024Z,11.63
2022-09-25T05:05:56.806Z,13.27
2022-09-25T05:08:23.450Z,15.32
2022-09-25T05:10:50.084Z,13.50
2022-09-25T05:13:16.773Z,14.93
2022-09-25T05:15:43.505Z,14.43
2022-09-25T05:18:16.680Z,12.18
2022-09-25T05:20:43.374Z,14.82
2022-09-25T05:23:09.986Z,12.85
2022-09-25T05:25:36.621Z,13.98
2022-09-25T05:28:03.458Z,13.90
2022-09-25T05:30:32.249Z,12.98
2022-09-25T05:32:58.963Z,12.20
2022-09-25T05:35:28.153Z,12.38
2022-09-25T05:37:55.580Z,13.15
2022-09-25T05:40:23.683Z,12.50
2022-09-25T05:42:52.981Z,12.65
2022-09-25T05:45:20.780Z,13.48
2022-09-25T05:47:47.919Z,13.18
2022-09-25T05:50:16.216Z,16.83
2022-09-25T05:52:42.860Z,12.80
2022-09-25T05:55:10.752Z,17.65
2022-09-25T05:57:38.389Z,15.52
2022-09-25T06:00:13.573Z,15.02
2022-09-25T06:02:40.267Z,16.65
2022-09-25T06:05:07.205Z,14.75
2022-09-25T06:07:33.819Z,12.95
2022-09-25T06:10:00.486Z,13.30
2022-09-25T06:12:29.540Z,16.98
2022-09-25T06:14:56.157Z,11.57
2022-09-25T06:17:22.808Z,15.88
2022-09-25T06:19:49.473Z,12.85
2022-09-25T06:22:16.105Z,13.75
2022-09-25T06:24:42.725Z,11.32
2022-09-25T06:27:09.684Z,15.85
2022-09-25T06:29:36.366Z,15.23
2022-09-25T06:32:03.813Z,13.48
2022-09-25T06:34:30.557Z,17.00
2022-09-25T06:36:57.203Z,14.93
2022-09-25T06:39:23.928Z,13.45
2022-09-25T06:41:53.010Z,14.60
2022-09-25T06:44:20.588Z,14.95
2022-09-25T06:46:52.036Z,11.60
2022-09-25T06:49:18.694Z,11.82
2022-09-25T06:51:45.427Z,11.80
2022-09-25T06:54:12.172Z,13.88
2022-09-25T06:56:38.792Z,11.82
2022-09-25T06:59:05.436Z,12.60
2022-09-25T07:01:32.198Z,11.63
2022-09-25T07:03:58.878Z,12.82
2022-09-25T07:06:31.182Z,12.43
2022-09-25T07:08:57.837Z,11.35
2022-09-25T07:11:26.463Z,10.45
2022-09-25T07:13:55.253Z,9.70
2022-09-25T07:16:24.591Z,12.18
2022-09-25T07:18:57.413Z,10.93
2022-09-25T07:21:25.177Z,10.23
2022-09-25T07:23:52.413Z,10.75
2022-09-25T07:26:22.515Z,10.55
2022-09-25T07:28:58.030Z,10.70
2022-09-25T07:31:30.114Z,10.90
2022-09-25T07:33:58.728Z,9.50
2022-09-25T07:36:25.367Z,10.73
2022-09-25T07:38:52.713Z,9.73
2022-09-25T07:41:20.985Z,13.10
2022-09-25T07:43:47.685Z,9.65
2022-09-25T07:46:14.331Z,9.80
2022-09-25T07:48:41.136Z,9.98
2022-09-25T07:51:10.117Z,9.23
2022-09-25T07:53:37.770Z,9.48
2022-09-25T07:56:06.870Z,9.35
2022-09-25T07:58:35.433Z,9.70
2022-09-25T08:01:04.780Z,10.02
2022-09-25T08:03:31.830Z,9.40
2022-09-25T08:06:07.074Z,8.13
2022-09-25T08:08:34.320Z,7.85
2022-09-25T08:11:02.728Z,9.68
2022-09-25T08:13:30.671Z,7.85
2022-09-25T08:15:57.365Z,9.95
2022-09-25T08:18:24.115Z,7.55
2022-09-25T08:20:50.887Z,6.63
2022-09-25T08:23:17.451Z,8.05
2022-09-25T08:25:48.177Z,7.18
2022-09-25T08:28:15.031Z,7.28
2022-09-25T08:30:43.510Z,8.40
2022-09-25T08:33:15.508Z,8.48
2022-09-25T08:35:43.063Z,7.40
2022-09-25T08:38:12.175Z,6.53
2022-09-25T08:40:46.522Z,7.63
2022-09-25T08:43:21.618Z,6.03
2022-09-25T08:46:08.010Z,6.75
2022-09-25T08:49:06.142Z,6.60
2022-09-25T08:51:44.284Z,8.15
2022-09-25T08:54:19.657Z,6.32
2022-09-25T08:56:50.718Z,6.43
2022-09-25T08:59:33.725Z,10.02
2022-09-25T09:02:02.823Z,6.95
2022-09-25T09:04:34.340Z,8.23
2022-09-25T09:07:40.392Z,7.10
2022-09-25T09:10:22.278Z,7.68
2022-09-25T09:12:57.214Z,10.77
2022-09-25T09:15:40.658Z,7.30
2022-09-25T09:18:27.795Z,7.10
2022-09-25T09:20:56.474Z,6.72
2022-09-25T09:23:58.548Z,6.53
2022-09-25T09:26:57.316Z,6.97
2022-09-25T09:29:29.296Z,6.55
2022-09-25T09:32:33.451Z,6.78
2022-09-25T09:35:08.110Z,6.43
2022-09-25T09:37:50.511Z,6.15
2022-09-25T09:41:01.629Z,5.78
2022-09-25T09:43:46.587Z,7.30
2022-09-25T09:46:21.942Z,5.43
2022-09-25T09:49:18.501Z,6.90
2022-09-25T09:51:50.639Z,7.30
2022-09-25T09:54:25.047Z,6.20
2022-09-25T09:56:52.180Z,7.53
2022-09-25T09:59:29.340Z,6.20
2022-09-25T10:02:18.668Z,5.95
2022-09-25T10:04:45.761Z,7.15
2022-09-25T10:07:16.713Z,6.40
2022-09-25T10:09:43.467Z,7.15
2022-09-25T10:12:33.202Z,7.00
2022-09-25T10:15:04.342Z,5.78
2022-09-25T10:17:31.265Z,6.05
2022-09-25T10:20:00.962Z,5.82
2022-09-25T10:22:30.549Z,7.15
2022-09-25T10:25:02.065Z,7.60
2022-09-25T10:27:37.047Z,5.85
2022-09-25T10:30:09.928Z,6.53
2022-09-25T10:32:57.297Z,5.90
2022-09-25T10:35:46.321Z,6.13
2022-09-25T10:38:29.182Z,5.90
2022-09-25T10:41:12.348Z,6.47
2022-09-25T10:43:57.051Z,6.13
2022-09-25T10:46:52.539Z,7.35
2022-09-25T10:49:42.532Z,5.43
2022-09-25T10:52:13.908Z,5.47
2022-09-25T10:54:45.312Z,5.72
2022-09-25T10:57:21.942Z,7.07
2022-09-25T10:59:50.281Z,6.60
2022-09-25T11:02:40.232Z,5.75
2022-09-25T11:05:22.132Z,5.53
2022-09-25T11:07:58.138Z,7.80
2022-09-25T11:10:28.435Z,6.28
2022-09-25T11:12:56.694Z,5.95
2022-09-25T11:15:26.375Z,5.68
2022-09-25T11:17:57.034Z,5.95
2022-09-25T11:20:31.776Z,5.80
2022-09-25T11:23:14.971Z,6.70
2022-09-25T11:26:06.582Z,6.22
2022-09-25T11:28:53.087Z,7.07
2022-09-25T11:31:35.733Z,5.82
2022-09-25T11:34:02.338Z,5.70
2022-09-25T11:36:32.802Z,5.90
2022-09-25T11:39:36.666Z,5.82
2022-09-25T11:42:18.346Z,6.47
2022-09-25T11:44:57.399Z,6.95
2022-09-25T11:47:36.750Z,5.93
2022-09-25T11:50:04.194Z,6.53
2022-09-25T11:52:59.226Z,6.85
2022-09-25T11:55:47.185Z,7.80
2022-09-25T11:58:33.633Z,7.45
2022-09-25T12:01:21.154Z,5.82
2022-09-25T12:04:00.778Z,5.80
2022-09-25T12:06:48.982Z,6.53
2022-09-25T12:09:29.801Z,5.95
2022-09-25T12:12:12.167Z,5.88
2022-09-25T12:15:17.252Z,6.40
2022-09-25T12:18:00.071Z,6.30
2022-09-25T12:20:42.481Z,7.57
2022-09-25T12:23:23.623Z,5.45
2022-09-25T12:25:59.941Z,6.20
2022-09-25T12:28:54.965Z,6.53
2022-09-25T12:31:41.490Z,5.70
2022-09-25T12:34:34.692Z,6.88
2022-09-25T12:37:32.046Z,5.38
2022-09-25T12:40:00.688Z,6.90
2022-09-25T12:42:42.045Z,5.78
2022-09-25T12:45:21.987Z,6.93
2022-09-25T12:48:29.119Z,6.47
2022-09-25T12:51:24.082Z,6.78
2022-09-25T12:53:56.317Z,6.07
2022-09-25T12:56:31.830Z,5.93
2022-09-25T12:59:31.889Z,6.47
2022-09-25T13:02:42.973Z,5.72
2022-09-25T13:05:21.779Z,5.47
2022-09-25T13:07:54.377Z,6.57
2022-09-25T13:10:26.744Z,5.97
2022-09-25T13:12:55.831Z,5.25
2022-09-25T13:15:28.897Z,5.50
2022-09-25T13:17:55.781Z,6.90
2022-09-25T13:20:37.810Z,7.18
2022-09-25T13:23:19.087Z,7.03
2022-09-25T13:25:59.742Z,6.22
2022-09-25T13:28:34.655Z,5.75
2022-09-25T13:31:13.002Z,8.65
2022-09-25T13:33:47.390Z,5.63
2022-09-25T13:36:23.351Z,5.50
2022-09-25T13:39:22.423Z,6.22
2022-09-25T13:41:55.409Z,6.20
2022-09-25T13:44:41.289Z,5.57
2022-09-25T13:47:29.860Z,5.93
2022-09-25T13:50:11.602Z,6.38
2022-09-25T13:52:41.370Z,6.00
2022-09-25T13:55:14.251Z,5.85
2022-09-25T13:57:55.921Z,6.00
2022-09-25T14:00:23.388Z,6.78
2022-09-25T14:02:50.320Z,6.25
2022-09-25T14:05:21.854Z,5.43
2022-09-25T14:07:50.207Z,6.47
2022-09-25T14:10:18.021Z,7.07
2022-09-25T14:12:48.058Z,6.78
2022-09-25T14:15:32.993Z,6.00
2022-09-25T14:18:01.714Z,6.45
2022-09-25T14:20:37.310Z,6.25
2022-09-25T14:23:12.029Z,7.38
2022-09-25T14:25:42.605Z,7.15
2022-09-25T14:28:25.724Z,6.40
2022-09-25T14:31:29.692Z,6.60
2022-09-25T14:34:28.327Z,8.82
2022-09-25T14:37:01.721Z,6.22
2022-09-25T14:39:43.619Z,6.68
2022-09-25T14:42:29.111Z,7.35
2022-09-25T14:45:03.969Z,8.13
2022-09-25T14:47:36.333Z,6.68
2022-09-25T14:50:03.895Z,7.70
2022-09-25T14:52:34.536Z,6.60
2022-09-25T14:55:02.001Z,6.32
2022-09-25T14:57:34.310Z,6.65
2022-09-25T15:00:04.799Z,7.43
2022-09-25T15:02:42.946Z,6.95
2022-09-25T15:05:20.052Z,6.57
2022-09-25T15:07:50.062Z,6.20
2022-09-25T15:10:30.569Z,8.15
2022-09-25T15:13:22.813Z,6.95
2022-09-25T15:16:12.940Z,8.32
2022-09-25T15:18:55.349Z,8.80
2022-09-25T15:21:33.325Z,7.30
2022-09-25T15:24:13.083Z,7.18
2022-09-25T15:26:54.490Z,7.30
2022-09-25T15:29:25.305Z,6.70
2022-09-25T15:31:52.382Z,7.65
2022-09-25T15:34:28.162Z,8.88
2022-09-25T15:36:54.955Z,8.25
2022-09-25T15:39:24.399Z,8.15
2022-09-25T15:41:51.413Z,8.48
2022-09-25T15:44:23.544Z,9.05
2022-09-25T15:46:55.058Z,7.85
2022-09-25T15:49:34.466Z,8.27
2022-09-25T15:52:12.022Z,7.10
2022-09-25T15:54:44.221Z,8.10
2022-09-25T15:57:14.001Z,7.93
2022-09-25T16:00:05.479Z,8.20
2022-09-25T16:02:54.355Z,9.25
2022-09-25T16:05:33.575Z,9.70
2022-09-25T16:08:36.735Z,10.23
2022-09-25T16:11:16.786Z,9.18
2022-09-25T16:13:49.237Z,8.63
2022-09-25T16:16:30.228Z,8.23
2022-09-25T16:18:58.986Z,7.93
2022-09-25T16:21:33.917Z,8.80
2022-09-25T16:24:02.833Z,8.15
2022-09-25T16:26:37.463Z,8.38
2022-09-25T16:29:18.134Z,9.15
2022-09-25T16:31:45.364Z,8.27
2022-09-25T16:34:26.378Z,8.85
2022-09-25T16:36:54.844Z,8.80
2022-09-25T16:39:38.553Z,9.43
2022-09-25T16:42:27.364Z,9.75
2022-09-25T16:45:04.039Z,8.90
2022-09-25T16:47:30.865Z,9.57
2022-09-25T16:49:57.494Z,9.70
2022-09-25T16:52:32.150Z,9.45
2022-09-25T16:55:00.852Z,10.20
2022-09-25T16:57:27.913Z,10.85
2022-09-25T16:59:54.923Z,11.35
2022-09-25T17:02:37.059Z,9.45
2022-09-25T17:05:07.230Z,10.70
2022-09-25T17:07:34.022Z,10.95
2022-09-25T17:10:01.532Z,9.68
2022-09-25T17:12:29.822Z,9.70
2022-09-25T17:14:56.625Z,11.43
2022-09-25T17:17:23.306Z,9.77
2022-09-25T17:19:50.463Z,11.00
2022-09-25T17:22:17.597Z,10.57
2022-09-25T17:24:44.273Z,11.98
2022-09-25T17:27:16.061Z,12.25
2022-09-25T17:29:42.961Z,11.35
2022-09-25T17:32:17.635Z,10.75
2022-09-25T17:34:45.975Z,11.52
2022-09-25T17:37:12.792Z,11.55
2022-09-25T17:39:39.375Z,13.38
2022-09-25T17:42:06.105Z,14.50
2022-09-25T17:44:33.009Z,16.58
2022-09-25T17:47:01.140Z,15.45
2022-09-25T17:49:29.001Z,16.80
2022-09-25T17:51:55.895Z,16.13
2022-09-25T17:54:23.290Z,14.77
2022-09-25T17:56:55.186Z,16.35
2022-09-25T17:59:22.284Z,21.33
2022-09-25T18:01:48.971Z,30.95
2022-09-25T18:04:27.338Z,31.25
2022-09-25T18:06:54.438Z,25.77
2022-09-25T18:09:23.691Z,25.17
2022-09-25T18:11:50.965Z,21.55
2022-09-25T18:14:17.681Z,17.52
2022-09-25T18:16:45.206Z,24.63
2022-09-25T18:19:38.377Z,20.92
2022-09-25T18:22:18.183Z,16.75
2022-09-25T18:24:54.243Z,13.02
2022-09-25T18:27:21.085Z,10.80
2022-09-25T18:29:47.726Z,14.20
2022-09-25T18:32:15.064Z,12.20
2022-09-25T18:34:42.562Z,12.93
2022-09-25T18:37:09.446Z,11.13
2022-09-25T18:39:36.056Z,13.30
2022-09-25T18:42:02.896Z,10.65
2022-09-25T18:44:30.386Z,11.88
2022-09-25T18:46:57.133Z,10.98
2022-09-25T18:49:24.901Z,10.57
2022-09-25T18:51:51.567Z,10.98
2022-09-25T18:54:19.427Z,11.85
2022-09-25T18:56:46.219Z,12.07
2022-09-25T18:59:12.935Z,10.57
2022-09-25T19:01:40.434Z,11.13
2022-09-25T19:04:07.906Z,10.75
2022-09-25T19:06:35.082Z,9.85
2022-09-25T19:09:02.790Z,10.23
2022-09-25T19:11:29.490Z,10.60
2022-09-25T19:13:56.510Z,10.50
2022-09-25T19:16:23.627Z,10.25
2022-09-25T19:18:50.894Z,10.45
2022-09-25T19:21:21.222Z,10.18
2022-09-25T19:23:49.278Z,10.40
2022-09-25T19:26:19.417Z,10.25
2022-09-25T19:28:46.087Z,12.00
2022-09-25T19:31:21.624Z,9.30
2022-09-25T19:33:48.685Z,10.95
2022-09-25T19:36:19.128Z,13.15
2022-09-25T19:38:46.179Z,9.95
2022-09-25T19:41:26.280Z,9.82
2022-09-25T19:43:54.120Z,9.10
2022-09-25T19:46:20.858Z,11.63
2022-09-25T19:48:48.485Z,11.75
2022-09-25T19:51:17.068Z,12.07
2022-09-25T19:53:44.479Z,12.70
2022-09-25T19:56:11.736Z,12.15
2022-09-25T19:58:38.669Z,11.43
2022-09-25T20:01:10.414Z,11.52
2022-09-25T20:03:37.142Z,12.40
2022-09-25T20:06:04.263Z,11.40
2022-09-25T20:08:31.248Z,11.13
2022-09-25T20:11:02.185Z,9.77
2022-09-25T20:13:28.832Z,12.38
2022-09-25T20:15:55.533Z,11.32
2022-09-25T20:18:23.139Z,11.35
2022-09-25T20:20:49.976Z,9.55
2022-09-25T20:23:16.678Z,10.65
2022-09-25T20:25:45.710Z,10.15
2022-09-25T20:28:12.861Z,10.07
2022-09-25T20:30:39.807Z,9.85
2022-09-25T20:33:06.490Z,13.38
2022-09-25T20:35:33.769Z,10.75
2022-09-25T20:38:00.657Z,11.57
2022-09-25T20:40:27.866Z,11.57
2022-09-25T20:42:54.718Z,9.65
2022-09-25T20:45:21.368Z,10.25
2022-09-25T20:47:47.946Z,9.85
2022-09-25T20:50:15.163Z,10.48
2022-09-25T20:52:41.884Z,11.27
2022-09-25T20:55:09.515Z,8.38
2022-09-25T20:57:36.196Z,8.63
2022-09-25T21:00:03.376Z,8.55
2022-09-25T21:02:30.178Z,9.40
2022-09-25T21:04:57.080Z,12.02
2022-09-25T21:07:25.638Z,11.68
2022-09-25T21:09:53.218Z,9.02
2022-09-25T21:12:20.252Z,10.20
2022-09-25T21:14:48.327Z,10.48
2022-09-25T21:17:15.140Z,11.63
2022-09-25T21:19:41.894Z,11.57
2022-09-25T21:22:08.516Z,9.95
2022-09-25T21:24:35.286Z,10.90
2022-09-25T21:27:01.866Z,10.52
2022-09-25T21:29:28.591Z,9.85
2022-09-25T21:31:55.391Z,13.27
2022-09-25T21:34:22.015Z,10.10
2022-09-25T21:36:49.029Z,8.77
2022-09-25T21:39:15.900Z,9.52
2022-09-25T21:41:42.700Z,10.77
2022-09-25T21:44:14.136Z,10.63
2022-09-25T21:46:40.982Z,11.27
2022-09-25T21:49:08.222Z,11.90
2022-09-25T21:51:38.018Z,12.35
2022-09-25T21:54:07.819Z,14.40
2022-09-25T21:56:34.687Z,12.30
2022-09-25T21:59:08.249Z,11.50
2022-09-25T22:04:04.385Z,14.20
2022-09-25T22:06:40.584Z,11.00
2022-09-25T22:09:12.451Z,12.90
2022-09-25T22:11:39.926Z,10.65
2022-09-25T22:14:10.955Z,10.70
2022-09-25T22:16:42.574Z,11.98
2022-09-25T22:19:22.920Z,13.18
2022-09-25T22:21:51.108Z,11.25
2022-09-25T22:24:18.070Z,11.65
2022-09-25T22:26:46.697Z,13.95
2022-09-25T22:29:14.574Z,10.35
2022-09-25T22:31:44.320Z,10.95
2022-09-25T22:34:21.568Z,10.75
2022-09-25T22:36:50.224Z,11.07
2022-09-25T22:39:19.595Z,10.38
2022-09-25T22:41:53.615Z,12.02
2022-09-25T22:44:20.741Z,11.68
2022-09-25T22:46:47.923Z,10.05
2022-09-25T22:49:14.591Z,10.38
2022-09-25T22:51:41.273Z,11.52
2022-09-25T22:54:08.263Z,10.60
2022-09-25T22:56:35.738Z,10.90
2022-09-25T22:59:06.397Z,11.13
2022-09-25T23:01:45.518Z,9.32
2022-09-25T23:04:14.777Z,9.00
2022-09-25T23:06:41.482Z,8.52
2022-09-25T23:09:11.992Z,8.75
2022-09-25T23:11:39.000Z,9.35
2022-09-25T23:14:08.683Z,12.77
2022-09-25T23:16:35.609Z,8.60
2022-09-25T23:19:02.605Z,8.00
2022-09-25T23:21:30.238Z,7.70
2022-09-25T23:24:06.822Z,8.95
2022-09-25T23:26:33.799Z,8.25
2022-09-25T23:29:02.027Z,8.00
2022-09-25T23:31:30.353Z,7.20
2022-09-25T23:33:59.658Z,6.60
2022-09-25T23:36:27.670Z,6.40
2022-09-25T23:38:55.514Z,6.88
2022-09-25T23:41:27.698Z,7.80
2022-09-25T23:43:55.386Z,6.90
2022-09-25T23:46:26.253Z,6.07
2022-09-25T23:48:53.437Z,6.60
2022-09-25T23:51:23.115Z,7.15
2022-09-25T23:53:50.269Z,7.55
2022-09-25T23:56:24.983Z,9.25
2022-09-25T23:58:51.927Z,6.40
